sensor_id;sensor_type;location;lat;lon;timestamp;pressure;altitude;pressure_sealevel;temperature
23208;BMP180;11773;52.570;13.052;2024-01-25T00:00:24;101258.00;;;13.50
23208;BMP180;11773;52.570;13.052;2024-01-25T00:02:54;101280.00;;;13.50
23208;BMP180;11773;52.570;13.052;2024-01-25T00:05:23;101268.00;;;13.50
23208;BMP180;11773;52.570;13.052;2024-01-25T00:07:53;101269.00;;;13.50
23208;BMP180;11773;52.570;13.052;2024-01-25T00:10:23;101274.00;;;13.50
23208;BMP180;11773;52.570;13.052;2024-01-25T00:12:52;101269.00;;;13.50
23208;BMP180;11773;52.570;13.052;2024-01-25T00:15:23;101281.00;;;13.50
23208;BMP180;11773;52.570;13.052;2024-01-25T00:17:53;101269.00;;;13.50
23208;BMP180;11773;52.570;13.052;2024-01-25T00:20:22;101264.00;;;13.50
23208;BMP180;11773;52.570;13.052;2024-01-25T00:22:52;101275.00;;;13.50
23208;BMP180;11773;52.570;13.052;2024-01-25T00:25:22;101277.00;;;13.50
23208;BMP180;11773;52.570;13.052;2024-01-25T00:27:52;101289.00;;;13.40
23208;BMP180;11773;52.570;13.052;2024-01-25T00:30:22;101272.00;;;13.50
23208;BMP180;11773;52.570;13.052;2024-01-25T00:32:51;101282.00;;;13.40
23208;BMP180;11773;52.570;13.052;2024-01-25T00:35:21;101281.00;;;13.40
23208;BMP180;11773;52.570;13.052;2024-01-25T00:37:52;101285.00;;;13.40
23208;BMP180;11773;52.570;13.052;2024-01-25T00:40:22;101281.00;;;13.40
23208;BMP180;11773;52.570;13.052;2024-01-25T00:42:52;101286.00;;;13.40
23208;BMP180;11773;52.570;13.052;2024-01-25T00:45:24;101289.00;;;13.50
23208;BMP180;11773;52.570;13.052;2024-01-25T00:47:53;101284.00;;;13.40
23208;BMP180;11773;52.570;13.052;2024-01-25T00:50:24;101292.00;;;13.50
23208;BMP180;11773;52.570;13.052;2024-01-25T00:52:55;101302.00;;;13.50
23208;BMP180;11773;52.570;13.052;2024-01-25T00:55:25;101306.00;;;13.50
23208;BMP180;11773;52.570;13.052;2024-01-25T00:57:55;101303.00;;;13.50
23208;BMP180;11773;52.570;13.052;2024-01-25T01:00:25;101317.00;;;13.50
23208;BMP180;11773;52.570;13.052;2024-01-25T01:02:57;101319.00;;;13.50
23208;BMP180;11773;52.570;13.052;2024-01-25T01:05:28;101330.00;;;13.50
23208;BMP180;11773;52.570;13.052;2024-01-25T01:07:58;101329.00;;;13.50
23208;BMP180;11773;52.570;13.052;2024-01-25T01:10:28;101342.00;;;13.50
23208;BMP180;11773;52.570;13.052;2024-01-25T01:12:57;101335.00;;;13.50
23208;BMP180;11773;52.570;13.052;2024-01-25T01:15:27;101327.00;;;13.50
23208;BMP180;11773;52.570;13.052;2024-01-25T01:17:57;101329.00;;;13.50
23208;BMP180;11773;52.570;13.052;2024-01-25T01:20:26;101338.00;;;13.50
23208;BMP180;11773;52.570;13.052;2024-01-25T01:22:56;101348.00;;;13.50
23208;BMP180;11773;52.570;13.052;2024-01-25T01:25:26;101329.00;;;13.50
23208;BMP180;11773;52.570;13.052;2024-01-25T01:27:55;101319.00;;;13.50
23208;BMP180;11773;52.570;13.052;2024-01-25T01:30:25;101335.00;;;13.50
23208;BMP180;11773;52.570;13.052;2024-01-25T01:32:55;101346.00;;;13.50
23208;BMP180;11773;52.570;13.052;2024-01-25T01:35:25;101348.00;;;13.40
23208;BMP180;11773;52.570;13.052;2024-01-25T01:37:55;101364.00;;;13.40
23208;BMP180;11773;52.570;13.052;2024-01-25T01:40:24;101380.00;;;13.50
23208;BMP180;11773;52.570;13.052;2024-01-25T01:43:02;101382.00;;;13.40
23208;BMP180;11773;52.570;13.052;2024-01-25T01:45:32;101378.00;;;13.40
23208;BMP180;11773;52.570;13.052;2024-01-25T01:48:01;101383.00;;;13.40
23208;BMP180;11773;52.570;13.052;2024-01-25T01:50:31;101375.00;;;13.40
23208;BMP180;11773;52.570;13.052;2024-01-25T01:53:01;101390.00;;;13.40
23208;BMP180;11773;52.570;13.052;2024-01-25T01:55:33;101374.00;;;13.40
23208;BMP180;11773;52.570;13.052;2024-01-25T01:58:02;101393.00;;;13.40
23208;BMP180;11773;52.570;13.052;2024-01-25T02:00:34;101379.00;;;13.40
23208;BMP180;11773;52.570;13.052;2024-01-25T02:03:04;101390.00;;;13.40
23208;BMP180;11773;52.570;13.052;2024-01-25T02:05:33;101383.00;;;13.40
23208;BMP180;11773;52.570;13.052;2024-01-25T02:08:05;101405.00;;;13.40
23208;BMP180;11773;52.570;13.052;2024-01-25T02:10:35;101400.00;;;13.40
23208;BMP180;11773;52.570;13.052;2024-01-25T02:13:05;101387.00;;;13.40
23208;BMP180;11773;52.570;13.052;2024-01-25T02:15:34;101402.00;;;13.40
23208;BMP180;11773;52.570;13.052;2024-01-25T02:18:05;101394.00;;;13.40
23208;BMP180;11773;52.570;13.052;2024-01-25T02:20:34;101399.00;;;13.40
23208;BMP180;11773;52.570;13.052;2024-01-25T02:23:04;101404.00;;;13.40
23208;BMP180;11773;52.570;13.052;2024-01-25T02:25:34;101400.00;;;13.40
23208;BMP180;11773;52.570;13.052;2024-01-25T02:28:03;101395.00;;;13.40
23208;BMP180;11773;52.570;13.052;2024-01-25T02:30:33;101388.00;;;13.40
23208;BMP180;11773;52.570;13.052;2024-01-25T02:33:03;101397.00;;;13.40
23208;BMP180;11773;52.570;13.052;2024-01-25T02:35:33;101389.00;;;13.40
23208;BMP180;11773;52.570;13.052;2024-01-25T02:38:02;101385.00;;;13.40
23208;BMP180;11773;52.570;13.052;2024-01-25T02:40:32;101391.00;;;13.40
23208;BMP180;11773;52.570;13.052;2024-01-25T02:43:01;101389.00;;;13.40
23208;BMP180;11773;52.570;13.052;2024-01-25T02:45:31;101387.00;;;13.40
23208;BMP180;11773;52.570;13.052;2024-01-25T02:48:00;101374.00;;;13.40
23208;BMP180;11773;52.570;13.052;2024-01-25T02:50:32;101392.00;;;13.40
23208;BMP180;11773;52.570;13.052;2024-01-25T02:53:02;101396.00;;;13.40
23208;BMP180;11773;52.570;13.052;2024-01-25T02:55:31;101392.00;;;13.30
23208;BMP180;11773;52.570;13.052;2024-01-25T02:58:01;101389.00;;;13.30
23208;BMP180;11773;52.570;13.052;2024-01-25T03:00:30;101395.00;;;13.40
23208;BMP180;11773;52.570;13.052;2024-01-25T03:03:00;101390.00;;;13.30
23208;BMP180;11773;52.570;13.052;2024-01-25T03:05:30;101399.00;;;13.30
23208;BMP180;11773;52.570;13.052;2024-01-25T03:08:00;101402.00;;;13.30
23208;BMP180;11773;52.570;13.052;2024-01-25T03:10:30;101392.00;;;13.30
23208;BMP180;11773;52.570;13.052;2024-01-25T03:12:59;101404.00;;;13.30
23208;BMP180;11773;52.570;13.052;2024-01-25T03:15:29;101396.00;;;13.30
23208;BMP180;11773;52.570;13.052;2024-01-25T03:17:58;101388.00;;;13.30
23208;BMP180;11773;52.570;13.052;2024-01-25T03:20:28;101394.00;;;13.30
23208;BMP180;11773;52.570;13.052;2024-01-25T03:22:58;101400.00;;;13.20
23208;BMP180;11773;52.570;13.052;2024-01-25T03:25:28;101396.00;;;13.20
23208;BMP180;11773;52.570;13.052;2024-01-25T03:27:59;101404.00;;;13.20
23208;BMP180;11773;52.570;13.052;2024-01-25T03:30:29;101404.00;;;13.20
23208;BMP180;11773;52.570;13.052;2024-01-25T03:32:59;101396.00;;;13.20
23208;BMP180;11773;52.570;13.052;2024-01-25T03:35:28;101393.00;;;13.10
23208;BMP180;11773;52.570;13.052;2024-01-25T03:37:58;101412.00;;;13.10
23208;BMP180;11773;52.570;13.052;2024-01-25T03:40:28;101409.00;;;13.10
23208;BMP180;11773;52.570;13.052;2024-01-25T03:42:57;101426.00;;;13.10
23208;BMP180;11773;52.570;13.052;2024-01-25T03:45:29;101412.00;;;13.10
23208;BMP180;11773;52.570;13.052;2024-01-25T03:48:00;101425.00;;;13.10
23208;BMP180;11773;52.570;13.052;2024-01-25T03:50:30;101404.00;;;13.10
23208;BMP180;11773;52.570;13.052;2024-01-25T03:53:00;101402.00;;;13.10
23208;BMP180;11773;52.570;13.052;2024-01-25T03:55:29;101387.00;;;13.10
23208;BMP180;11773;52.570;13.052;2024-01-25T03:57:59;101394.00;;;13.20
23208;BMP180;11773;52.570;13.052;2024-01-25T04:00:29;101405.00;;;13.10
23208;BMP180;11773;52.570;13.052;2024-01-25T04:03:00;101420.00;;;13.10
23208;BMP180;11773;52.570;13.052;2024-01-25T04:05:29;101407.00;;;13.10
23208;BMP180;11773;52.570;13.052;2024-01-25T04:07:59;101408.00;;;13.10
23208;BMP180;11773;52.570;13.052;2024-01-25T04:10:29;101386.00;;;13.10
23208;BMP180;11773;52.570;13.052;2024-01-25T04:12:58;101395.00;;;13.10
23208;BMP180;11773;52.570;13.052;2024-01-25T04:15:33;101415.00;;;13.10
23208;BMP180;11773;52.570;13.052;2024-01-25T04:18:03;101424.00;;;13.10
23208;BMP180;11773;52.570;13.052;2024-01-25T04:20:33;101412.00;;;13.10
23208;BMP180;11773;52.570;13.052;2024-01-25T04:23:03;101428.00;;;13.10
23208;BMP180;11773;52.570;13.052;2024-01-25T04:25:33;101438.00;;;13.10
23208;BMP180;11773;52.570;13.052;2024-01-25T04:28:02;101443.00;;;13.10
23208;BMP180;11773;52.570;13.052;2024-01-25T04:30:32;101439.00;;;13.00
23208;BMP180;11773;52.570;13.052;2024-01-25T04:33:03;101439.00;;;13.00
23208;BMP180;11773;52.570;13.052;2024-01-25T04:35:33;101454.00;;;13.00
23208;BMP180;11773;52.570;13.052;2024-01-25T04:38:03;101468.00;;;13.00
23208;BMP180;11773;52.570;13.052;2024-01-25T04:40:33;101476.00;;;13.00
23208;BMP180;11773;52.570;13.052;2024-01-25T04:43:02;101465.00;;;13.00
23208;BMP180;11773;52.570;13.052;2024-01-25T04:45:32;101468.00;;;13.00
23208;BMP180;11773;52.570;13.052;2024-01-25T04:48:02;101451.00;;;13.00
23208;BMP180;11773;52.570;13.052;2024-01-25T04:50:32;101468.00;;;13.00
23208;BMP180;11773;52.570;13.052;2024-01-25T04:53:04;101480.00;;;13.00
23208;BMP180;11773;52.570;13.052;2024-01-25T04:55:34;101478.00;;;13.00
23208;BMP180;11773;52.570;13.052;2024-01-25T04:58:03;101504.00;;;13.00
23208;BMP180;11773;52.570;13.052;2024-01-25T05:00:33;101479.00;;;13.00
23208;BMP180;11773;52.570;13.052;2024-01-25T05:03:04;101488.00;;;13.00
23208;BMP180;11773;52.570;13.052;2024-01-25T05:05:34;101478.00;;;13.00
23208;BMP180;11773;52.570;13.052;2024-01-25T05:08:03;101497.00;;;13.00
23208;BMP180;11773;52.570;13.052;2024-01-25T05:10:33;101500.00;;;13.00
23208;BMP180;11773;52.570;13.052;2024-01-25T05:13:03;101494.00;;;13.00
23208;BMP180;11773;52.570;13.052;2024-01-25T05:15:33;101496.00;;;13.00
23208;BMP180;11773;52.570;13.052;2024-01-25T05:18:03;101495.00;;;13.00
23208;BMP180;11773;52.570;13.052;2024-01-25T05:20:34;101524.00;;;13.00
23208;BMP180;11773;52.570;13.052;2024-01-25T05:23:05;101529.00;;;13.00
23208;BMP180;11773;52.570;13.052;2024-01-25T05:25:35;101519.00;;;13.00
23208;BMP180;11773;52.570;13.052;2024-01-25T05:28:05;101520.00;;;13.00
23208;BMP180;11773;52.570;13.052;2024-01-25T05:30:35;101524.00;;;13.00
23208;BMP180;11773;52.570;13.052;2024-01-25T05:33:04;101526.00;;;13.00
23208;BMP180;11773;52.570;13.052;2024-01-25T05:35:34;101519.00;;;13.00
23208;BMP180;11773;52.570;13.052;2024-01-25T05:38:04;101517.00;;;13.00
23208;BMP180;11773;52.570;13.052;2024-01-25T05:40:35;101508.00;;;13.00
23208;BMP180;11773;52.570;13.052;2024-01-25T05:43:04;101520.00;;;13.00
23208;BMP180;11773;52.570;13.052;2024-01-25T05:45:34;101535.00;;;13.00
23208;BMP180;11773;52.570;13.052;2024-01-25T05:48:04;101538.00;;;13.00
23208;BMP180;11773;52.570;13.052;2024-01-25T05:50:34;101547.00;;;13.00
23208;BMP180;11773;52.570;13.052;2024-01-25T05:53:03;101556.00;;;13.00
23208;BMP180;11773;52.570;13.052;2024-01-25T05:55:33;101555.00;;;13.00
23208;BMP180;11773;52.570;13.052;2024-01-25T05:58:03;101570.00;;;13.00
23208;BMP180;11773;52.570;13.052;2024-01-25T06:00:32;101566.00;;;13.00
23208;BMP180;11773;52.570;13.052;2024-01-25T06:03:02;101578.00;;;13.00
23208;BMP180;11773;52.570;13.052;2024-01-25T06:05:32;101568.00;;;13.00
23208;BMP180;11773;52.570;13.052;2024-01-25T06:08:01;101569.00;;;13.00
23208;BMP180;11773;52.570;13.052;2024-01-25T06:10:31;101560.00;;;13.00
23208;BMP180;11773;52.570;13.052;2024-01-25T06:13:02;101570.00;;;13.00
23208;BMP180;11773;52.570;13.052;2024-01-25T06:15:31;101585.00;;;13.00
23208;BMP180;11773;52.570;13.052;2024-01-25T06:18:01;101593.00;;;12.90
23208;BMP180;11773;52.570;13.052;2024-01-25T06:20:31;101576.00;;;13.00
23208;BMP180;11773;52.570;13.052;2024-01-25T06:23:01;101584.00;;;13.00
23208;BMP180;11773;52.570;13.052;2024-01-25T06:25:31;101589.00;;;13.00
23208;BMP180;11773;52.570;13.052;2024-01-25T06:28:01;101591.00;;;12.90
23208;BMP180;11773;52.570;13.052;2024-01-25T06:30:32;101594.00;;;12.90
23208;BMP180;11773;52.570;13.052;2024-01-25T06:33:01;101574.00;;;12.90
23208;BMP180;11773;52.570;13.052;2024-01-25T06:35:31;101596.00;;;12.90
23208;BMP180;11773;52.570;13.052;2024-01-25T06:38:01;101622.00;;;12.90
23208;BMP180;11773;52.570;13.052;2024-01-25T06:40:31;101606.00;;;12.90
23208;BMP180;11773;52.570;13.052;2024-01-25T06:43:00;101618.00;;;12.90
23208;BMP180;11773;52.570;13.052;2024-01-25T06:45:30;101612.00;;;12.90
23208;BMP180;11773;52.570;13.052;2024-01-25T06:48:00;101612.00;;;12.90
23208;BMP180;11773;52.570;13.052;2024-01-25T06:50:30;101608.00;;;12.90
23208;BMP180;11773;52.570;13.052;2024-01-25T06:53:00;101619.00;;;12.90
23208;BMP180;11773;52.570;13.052;2024-01-25T06:55:29;101619.00;;;12.90
23208;BMP180;11773;52.570;13.052;2024-01-25T06:57:59;101617.00;;;12.90
23208;BMP180;11773;52.570;13.052;2024-01-25T07:00:29;101604.00;;;12.90
23208;BMP180;11773;52.570;13.052;2024-01-25T07:02:59;101633.00;;;12.90
23208;BMP180;11773;52.570;13.052;2024-01-25T07:05:29;101631.00;;;12.90
23208;BMP180;11773;52.570;13.052;2024-01-25T07:08:01;101637.00;;;12.90
23208;BMP180;11773;52.570;13.052;2024-01-25T07:10:31;101638.00;;;12.90
23208;BMP180;11773;52.570;13.052;2024-01-25T07:13:01;101635.00;;;12.90
23208;BMP180;11773;52.570;13.052;2024-01-25T07:15:30;101629.00;;;12.90
23208;BMP180;11773;52.570;13.052;2024-01-25T07:18:01;101637.00;;;12.90
23208;BMP180;11773;52.570;13.052;2024-01-25T07:20:31;101661.00;;;12.90
23208;BMP180;11773;52.570;13.052;2024-01-25T07:23:01;101652.00;;;12.90
23208;BMP180;11773;52.570;13.052;2024-01-25T07:25:31;101659.00;;;12.90
23208;BMP180;11773;52.570;13.052;2024-01-25T07:28:01;101670.00;;;12.90
23208;BMP180;11773;52.570;13.052;2024-01-25T07:30:30;101689.00;;;12.90
23208;BMP180;11773;52.570;13.052;2024-01-25T07:33:00;101683.00;;;12.90
23208;BMP180;11773;52.570;13.052;2024-01-25T07:35:30;101688.00;;;12.90
23208;BMP180;11773;52.570;13.052;2024-01-25T07:37:59;101677.00;;;12.90
23208;BMP180;11773;52.570;13.052;2024-01-25T07:40:29;101695.00;;;12.90
23208;BMP180;11773;52.570;13.052;2024-01-25T07:42:59;101685.00;;;12.90
23208;BMP180;11773;52.570;13.052;2024-01-25T07:45:28;101710.00;;;12.90
23208;BMP180;11773;52.570;13.052;2024-01-25T07:47:59;101722.00;;;12.90
23208;BMP180;11773;52.570;13.052;2024-01-25T07:50:30;101732.00;;;12.90
23208;BMP180;11773;52.570;13.052;2024-01-25T07:53:00;101733.00;;;12.90
23208;BMP180;11773;52.570;13.052;2024-01-25T07:55:30;101743.00;;;12.90
23208;BMP180;11773;52.570;13.052;2024-01-25T07:58:00;101731.00;;;12.90
23208;BMP180;11773;52.570;13.052;2024-01-25T08:00:30;101722.00;;;12.90
23208;BMP180;11773;52.570;13.052;2024-01-25T08:02:59;101735.00;;;12.90
23208;BMP180;11773;52.570;13.052;2024-01-25T08:05:29;101746.00;;;12.90
23208;BMP180;11773;52.570;13.052;2024-01-25T08:08:00;101757.00;;;12.90
23208;BMP180;11773;52.570;13.052;2024-01-25T08:10:30;101762.00;;;12.90
23208;BMP180;11773;52.570;13.052;2024-01-25T08:13:00;101760.00;;;12.90
23208;BMP180;11773;52.570;13.052;2024-01-25T08:17:57;101762.00;;;12.90
23208;BMP180;11773;52.570;13.052;2024-01-25T08:20:27;101759.00;;;12.90
23208;BMP180;11773;52.570;13.052;2024-01-25T08:22:57;101779.00;;;13.00
23208;BMP180;11773;52.570;13.052;2024-01-25T08:25:27;101775.00;;;13.00
23208;BMP180;11773;52.570;13.052;2024-01-25T08:27:57;101780.00;;;13.00
23208;BMP180;11773;52.570;13.052;2024-01-25T08:30:26;101781.00;;;13.00
23208;BMP180;11773;52.570;13.052;2024-01-25T08:32:56;101797.00;;;13.00
23208;BMP180;11773;52.570;13.052;2024-01-25T08:35:26;101785.00;;;13.00
23208;BMP180;11773;52.570;13.052;2024-01-25T08:37:56;101802.00;;;13.00
23208;BMP180;11773;52.570;13.052;2024-01-25T08:40:25;101795.00;;;13.00
23208;BMP180;11773;52.570;13.052;2024-01-25T08:42:56;101795.00;;;13.00
23208;BMP180;11773;52.570;13.052;2024-01-25T08:45:26;101796.00;;;13.00
23208;BMP180;11773;52.570;13.052;2024-01-25T08:47:56;101803.00;;;13.10
23208;BMP180;11773;52.570;13.052;2024-01-25T08:50:25;101797.00;;;13.10
23208;BMP180;11773;52.570;13.052;2024-01-25T08:52:55;101802.00;;;13.10
23208;BMP180;11773;52.570;13.052;2024-01-25T08:55:25;101809.00;;;13.10
23208;BMP180;11773;52.570;13.052;2024-01-25T08:57:55;101806.00;;;13.10
23208;BMP180;11773;52.570;13.052;2024-01-25T09:00:24;101821.00;;;13.10
23208;BMP180;11773;52.570;13.052;2024-01-25T09:02:54;101817.00;;;13.20
23208;BMP180;11773;52.570;13.052;2024-01-25T09:05:23;101814.00;;;13.20
23208;BMP180;11773;52.570;13.052;2024-01-25T09:08:16;101828.00;;;13.20
23208;BMP180;11773;52.570;13.052;2024-01-25T09:10:46;101823.00;;;13.20
23208;BMP180;11773;52.570;13.052;2024-01-25T09:13:16;101838.00;;;13.20
23208;BMP180;11773;52.570;13.052;2024-01-25T09:15:46;101842.00;;;13.20
23208;BMP180;11773;52.570;13.052;2024-01-25T09:18:16;101843.00;;;13.20
23208;BMP180;11773;52.570;13.052;2024-01-25T09:20:46;101833.00;;;13.20
23208;BMP180;11773;52.570;13.052;2024-01-25T09:23:17;101847.00;;;13.20
23208;BMP180;11773;52.570;13.052;2024-01-25T09:25:47;101847.00;;;13.20
23208;BMP180;11773;52.570;13.052;2024-01-25T09:28:16;101860.00;;;13.20
23208;BMP180;11773;52.570;13.052;2024-01-25T09:30:46;101856.00;;;13.20
23208;BMP180;11773;52.570;13.052;2024-01-25T09:33:16;101851.00;;;13.20
23208;BMP180;11773;52.570;13.052;2024-01-25T09:35:46;101877.00;;;13.20
23208;BMP180;11773;52.570;13.052;2024-01-25T09:38:18;101870.00;;;13.20
23208;BMP180;11773;52.570;13.052;2024-01-25T09:40:48;101869.00;;;13.20
23208;BMP180;11773;52.570;13.052;2024-01-25T09:43:20;101889.00;;;13.20
23208;BMP180;11773;52.570;13.052;2024-01-25T09:45:54;101864.00;;;13.20
23208;BMP180;11773;52.570;13.052;2024-01-25T09:48:24;101877.00;;;13.20
23208;BMP180;11773;52.570;13.052;2024-01-25T09:50:56;101892.00;;;13.20
23208;BMP180;11773;52.570;13.052;2024-01-25T09:53:30;101880.00;;;13.20
23208;BMP180;11773;52.570;13.052;2024-01-25T09:56:11;101883.00;;;13.20
23208;BMP180;11773;52.570;13.052;2024-01-25T09:58:43;101892.00;;;13.20
23208;BMP180;11773;52.570;13.052;2024-01-25T10:01:17;101874.00;;;13.20
23208;BMP180;11773;52.570;13.052;2024-01-25T10:03:47;101886.00;;;13.20
23208;BMP180;11773;52.570;13.052;2024-01-25T10:06:17;101878.00;;;13.20
23208;BMP180;11773;52.570;13.052;2024-01-25T10:08:47;101885.00;;;13.20
23208;BMP180;11773;52.570;13.052;2024-01-25T10:11:17;101887.00;;;13.30
23208;BMP180;11773;52.570;13.052;2024-01-25T10:13:49;101933.00;;;13.30
23208;BMP180;11773;52.570;13.052;2024-01-25T10:16:22;101900.00;;;13.30
23208;BMP180;11773;52.570;13.052;2024-01-25T10:18:52;101913.00;;;13.30
23208;BMP180;11773;52.570;13.052;2024-01-25T10:21:23;101920.00;;;13.30
23208;BMP180;11773;52.570;13.052;2024-01-25T10:23:55;101914.00;;;13.30
23208;BMP180;11773;52.570;13.052;2024-01-25T10:26:27;101917.00;;;13.30
23208;BMP180;11773;52.570;13.052;2024-01-25T10:28:57;101915.00;;;13.30
23208;BMP180;11773;52.570;13.052;2024-01-25T10:31:30;101940.00;;;13.40
23208;BMP180;11773;52.570;13.052;2024-01-25T10:34:01;101932.00;;;13.40
23208;BMP180;11773;52.570;13.052;2024-01-25T10:36:31;101921.00;;;13.40
23208;BMP180;11773;52.570;13.052;2024-01-25T10:39:04;101917.00;;;13.40
23208;BMP180;11773;52.570;13.052;2024-01-25T10:41:36;101921.00;;;13.40
23208;BMP180;11773;52.570;13.052;2024-01-25T10:44:05;101921.00;;;13.40
23208;BMP180;11773;52.570;13.052;2024-01-25T10:46:37;101929.00;;;13.50
23208;BMP180;11773;52.570;13.052;2024-01-25T10:49:08;101934.00;;;13.50
23208;BMP180;11773;52.570;13.052;2024-01-25T10:51:41;101937.00;;;13.50
23208;BMP180;11773;52.570;13.052;2024-01-25T10:54:13;101942.00;;;13.50
23208;BMP180;11773;52.570;13.052;2024-01-25T10:56:44;101945.00;;;13.40
23208;BMP180;11773;52.570;13.052;2024-01-25T10:59:17;101946.00;;;13.50
23208;BMP180;11773;52.570;13.052;2024-01-25T11:01:47;101942.00;;;13.50
23208;BMP180;11773;52.570;13.052;2024-01-25T11:04:18;101944.00;;;13.50
23208;BMP180;11773;52.570;13.052;2024-01-25T11:06:48;101938.00;;;13.50
23208;BMP180;11773;52.570;13.052;2024-01-25T11:09:21;101945.00;;;13.50
23208;BMP180;11773;52.570;13.052;2024-01-25T11:11:53;101936.00;;;13.50
23208;BMP180;11773;52.570;13.052;2024-01-25T11:14:26;101948.00;;;13.50
23208;BMP180;11773;52.570;13.052;2024-01-25T11:16:55;101961.00;;;13.50
23208;BMP180;11773;52.570;13.052;2024-01-25T11:19:25;101961.00;;;13.60
23208;BMP180;11773;52.570;13.052;2024-01-25T11:21:56;101958.00;;;13.60
23208;BMP180;11773;52.570;13.052;2024-01-25T11:24:26;101946.00;;;13.60
23208;BMP180;11773;52.570;13.052;2024-01-25T11:26:56;101950.00;;;13.60
23208;BMP180;11773;52.570;13.052;2024-01-25T11:29:26;101947.00;;;13.60
23208;BMP180;11773;52.570;13.052;2024-01-25T11:31:55;101945.00;;;13.70
23208;BMP180;11773;52.570;13.052;2024-01-25T11:34:25;101942.00;;;13.70
23208;BMP180;11773;52.570;13.052;2024-01-25T11:36:55;101948.00;;;13.70
23208;BMP180;11773;52.570;13.052;2024-01-25T11:39:26;101944.00;;;13.70
23208;BMP180;11773;52.570;13.052;2024-01-25T11:41:56;101951.00;;;13.70
23208;BMP180;11773;52.570;13.052;2024-01-25T11:44:26;101944.00;;;13.80
23208;BMP180;11773;52.570;13.052;2024-01-25T11:46:56;101957.00;;;13.80
23208;BMP180;11773;52.570;13.052;2024-01-25T11:49:26;101964.00;;;13.80
23208;BMP180;11773;52.570;13.052;2024-01-25T11:51:57;101972.00;;;13.80
23208;BMP180;11773;52.570;13.052;2024-01-25T11:54:27;101964.00;;;13.80
23208;BMP180;11773;52.570;13.052;2024-01-25T11:56:57;101972.00;;;13.90
23208;BMP180;11773;52.570;13.052;2024-01-25T11:59:26;101962.00;;;13.90
23208;BMP180;11773;52.570;13.052;2024-01-25T12:01:56;101961.00;;;13.90
23208;BMP180;11773;52.570;13.052;2024-01-25T12:04:27;101951.00;;;14.00
23208;BMP180;11773;52.570;13.052;2024-01-25T12:06:57;101956.00;;;14.00
23208;BMP180;11773;52.570;13.052;2024-01-25T12:09:26;101972.00;;;14.00
23208;BMP180;11773;52.570;13.052;2024-01-25T12:11:56;101969.00;;;14.00
23208;BMP180;11773;52.570;13.052;2024-01-25T12:14:26;101965.00;;;14.00
23208;BMP180;11773;52.570;13.052;2024-01-25T12:16:57;101972.00;;;14.00
23208;BMP180;11773;52.570;13.052;2024-01-25T12:19:28;101990.00;;;14.00
23208;BMP180;11773;52.570;13.052;2024-01-25T12:21:58;101971.00;;;14.00
23208;BMP180;11773;52.570;13.052;2024-01-25T12:24:27;101962.00;;;14.00
23208;BMP180;11773;52.570;13.052;2024-01-25T12:26:57;101972.00;;;14.00
23208;BMP180;11773;52.570;13.052;2024-01-25T12:29:28;101985.00;;;14.00
23208;BMP180;11773;52.570;13.052;2024-01-25T12:31:58;101976.00;;;14.00
23208;BMP180;11773;52.570;13.052;2024-01-25T12:34:27;101984.00;;;14.00
23208;BMP180;11773;52.570;13.052;2024-01-25T12:36:57;101972.00;;;14.00
23208;BMP180;11773;52.570;13.052;2024-01-25T12:39:28;101969.00;;;14.10
23208;BMP180;11773;52.570;13.052;2024-01-25T12:41:58;101970.00;;;14.10
23208;BMP180;11773;52.570;13.052;2024-01-25T12:44:27;101976.00;;;14.10
23208;BMP180;11773;52.570;13.052;2024-01-25T12:46:57;101979.00;;;14.10
23208;BMP180;11773;52.570;13.052;2024-01-25T12:49:29;101975.00;;;14.10
23208;BMP180;11773;52.570;13.052;2024-01-25T12:51:59;101981.00;;;14.10
23208;BMP180;11773;52.570;13.052;2024-01-25T12:54:29;101965.00;;;14.10
23208;BMP180;11773;52.570;13.052;2024-01-25T12:56:58;101966.00;;;14.10
23208;BMP180;11773;52.570;13.052;2024-01-25T12:59:28;101972.00;;;14.10
23208;BMP180;11773;52.570;13.052;2024-01-25T13:01:58;101961.00;;;14.10
23208;BMP180;11773;52.570;13.052;2024-01-25T13:04:28;101985.00;;;14.10
23208;BMP180;11773;52.570;13.052;2024-01-25T13:06:58;101977.00;;;14.20
23208;BMP180;11773;52.570;13.052;2024-01-25T13:09:29;101958.00;;;14.20
23208;BMP180;11773;52.570;13.052;2024-01-25T13:12:01;101984.00;;;14.20
23208;BMP180;11773;52.570;13.052;2024-01-25T13:14:30;101993.00;;;14.20
23208;BMP180;11773;52.570;13.052;2024-01-25T13:17:00;101985.00;;;14.20
23208;BMP180;11773;52.570;13.052;2024-01-25T13:19:30;101989.00;;;14.20
23208;BMP180;11773;52.570;13.052;2024-01-25T13:22:00;101984.00;;;14.20
23208;BMP180;11773;52.570;13.052;2024-01-25T13:24:29;101984.00;;;14.20
23208;BMP180;11773;52.570;13.052;2024-01-25T13:26:59;101976.00;;;14.20
23208;BMP180;11773;52.570;13.052;2024-01-25T13:29:29;101986.00;;;14.10
23208;BMP180;11773;52.570;13.052;2024-01-25T13:31:58;101982.00;;;14.10
23208;BMP180;11773;52.570;13.052;2024-01-25T13:34:28;101986.00;;;14.10
23208;BMP180;11773;52.570;13.052;2024-01-25T13:36:57;101980.00;;;14.10
23208;BMP180;11773;52.570;13.052;2024-01-25T13:39:27;101988.00;;;14.20
23208;BMP180;11773;52.570;13.052;2024-01-25T13:41:57;101998.00;;;14.10
23208;BMP180;11773;52.570;13.052;2024-01-25T13:44:27;101982.00;;;14.10
23208;BMP180;11773;52.570;13.052;2024-01-25T13:46:57;101985.00;;;14.10
23208;BMP180;11773;52.570;13.052;2024-01-25T13:49:27;102005.00;;;14.10
23208;BMP180;11773;52.570;13.052;2024-01-25T13:52:00;101983.00;;;14.10
23208;BMP180;11773;52.570;13.052;2024-01-25T13:54:32;101983.00;;;14.10
23208;BMP180;11773;52.570;13.052;2024-01-25T13:57:02;101985.00;;;14.10
23208;BMP180;11773;52.570;13.052;2024-01-25T13:59:31;101982.00;;;14.10
23208;BMP180;11773;52.570;13.052;2024-01-25T14:02:01;101988.00;;;14.10